• Join FlightAware (Why Join?)
  • Login
  • US Flag 
01:36AM EDT


 

Airport Tracker/Info


-or-


 

Live Flight TrackerFlight Track Log ✈ UAL33 ✈ 01-Dec-2013 ✈ RJAA / NRT - KLAX

Flight Track Log - Related Links

Times and Time Zones

All times are in EST time to prevent confusion due to time zone crossing. See the UAL33 flight status page for this flight to view local times or setup timezone preferences in your user account.

Time Position Orientation Groundspeed Altitude Reporting Facility
EST Latitude Longitude Course Direction KTS MPH feet Rate Location/Type
04:22AM 36.1083 140.9746 54° Northeast  Level FlightAware Approximate
04:23AM 36.1938 141.1225 54° Northeast  Level FlightAware Approximate
04:24AM 36.2790 141.2707 54° Northeast  Level FlightAware Approximate
04:25AM 36.3641 141.4192 55° Northeast  Level FlightAware Approximate
04:26AM 36.4490 141.5680 55° Northeast  Level FlightAware Approximate
04:27AM 36.5337 141.7172 55° Northeast  Level FlightAware Approximate
04:28AM 36.6183 141.8667 55° Northeast  Level FlightAware Approximate
04:29AM 36.7026 142.0165 55° Northeast  Level FlightAware Approximate
04:30AM 36.7868 142.1666 55° Northeast  Level FlightAware Approximate
04:31AM 36.8707 142.3171 55° Northeast  Level FlightAware Approximate
04:32AM 36.9501 142.4716 55° Northeast  Level Estimated
04:33AM 37.0337 142.6227 55° Northeast  Level FlightAware Approximate
04:34AM 37.1171 142.7741 55° Northeast  Level FlightAware Approximate
04:35AM 37.2003 142.9259 55° Northeast  Level FlightAware Approximate
04:36AM 37.2833 143.0780 56° Northeast  Level FlightAware Approximate
04:37AM 37.3662 143.2305 56° Northeast  Level FlightAware Approximate
04:38AM 37.4488 143.3832 56° Northeast  Level FlightAware Approximate
04:39AM 37.5312 143.5364 56° Northeast  Level FlightAware Approximate
04:40AM 37.6135 143.6898 56° Northeast  Level FlightAware Approximate
04:41AM 37.6955 143.8436 56° Northeast  Level FlightAware Approximate
04:42AM 37.7774 143.9978 56° Northeast  Level FlightAware Approximate
04:43AM 37.8590 144.1522 56° Northeast  Level FlightAware Approximate
04:44AM 37.9404 144.3071 56° Northeast  Level FlightAware Approximate
04:45AM 38.0217 144.4622 56° Northeast  Level FlightAware Approximate
04:46AM 38.1027 144.6177 56° Northeast  Level FlightAware Approximate
04:47AM 38.1835 144.7736 57° Northeast  Level FlightAware Approximate
04:48AM 38.2641 144.9298 57° Northeast  Level FlightAware Approximate
04:49AM 38.3446 145.0863 57° Northeast  Level FlightAware Approximate
04:50AM 38.4242 145.2421 57° Northeast  Level FlightAware Approximate
04:51AM 38.5036 145.3981 57° Northeast  Level FlightAware Approximate
04:52AM 38.5828 145.5546 57° Northeast  Level FlightAware Approximate
04:53AM 38.6618 145.7113 57° Northeast  Level FlightAware Approximate
04:54AM 38.7406 145.8685 57° Northeast  Level FlightAware Approximate
04:55AM 38.8191 146.0259 57° Northeast  Level FlightAware Approximate
04:56AM 38.8975 146.1837 57° Northeast  Level FlightAware Approximate
04:57AM 38.9756 146.3419 58° Northeast  Level FlightAware Approximate
04:58AM 39.0536 146.5004 58° Northeast  Level FlightAware Approximate
04:59AM 39.1313 146.6593 58° Northeast  Level FlightAware Approximate
05:00AM 39.2088 146.8185 58° Northeast  Level FlightAware Approximate
05:01AM 39.2861 146.9780 58° Northeast  Level FlightAware Approximate
05:02AM 39.3631 147.1379 58° Northeast  Level FlightAware Approximate
05:03AM 39.4400 147.2982 58° Northeast  Level FlightAware Approximate
05:04AM 39.5166 147.4588 58° Northeast  Level FlightAware Approximate
05:05AM 39.5930 147.6198 58° Northeast  Level FlightAware Approximate
05:06AM 39.6692 147.7811 58° Northeast  Level FlightAware Approximate
05:07AM 39.7452 147.9428 59° Northeast  Level FlightAware Approximate
05:08AM 39.8209 148.1048 59° Northeast  Level FlightAware Approximate
05:09AM 39.8964 148.2672 59° Northeast  Level FlightAware Approximate
05:10AM 39.9717 148.4300 59° Northeast  Level FlightAware Approximate
05:11AM 40.0467 148.5931 59° Northeast  Level FlightAware Approximate
05:12AM 40.1215 148.7566 59° Northeast  Level FlightAware Approximate
05:13AM 40.1961 148.9204 59° Northeast  Level FlightAware Approximate
05:14AM 40.2705 149.0846 59° Northeast  Level FlightAware Approximate
05:15AM 40.3446 149.2491 59° Northeast  Level FlightAware Approximate
05:16AM 40.4185 149.4140 59° Northeast  Level FlightAware Approximate
05:17AM 40.4922 149.5793 60° Northeast  Level FlightAware Approximate
05:18AM 40.5656 149.7450 60° Northeast  Level FlightAware Approximate
05:19AM 40.6388 149.9110 60° Northeast  Level FlightAware Approximate
05:20AM 40.7117 150.0773 60° Northeast  Level FlightAware Approximate
05:21AM 40.7844 150.2441 60° Northeast  Level FlightAware Approximate
05:22AM 40.8569 150.4112 60° Northeast  Level FlightAware Approximate
05:23AM 40.9291 150.5786 60° Northeast  Level FlightAware Approximate
05:24AM 41.0011 150.7464 60° Northeast  Level FlightAware Approximate
05:25AM 41.0729 150.9146 60° Northeast  Level FlightAware Approximate
05:26AM 41.1444 151.0832 61° Northeast  Level FlightAware Approximate
05:27AM 41.2156 151.2521 61° Northeast  Level FlightAware Approximate
05:28AM 41.2866 151.4214 61° Northeast  Level FlightAware Approximate
05:29AM 41.3574 151.5911 61° Northeast  Level FlightAware Approximate
05:30AM 41.4279 151.7611 61° Northeast  Level FlightAware Approximate
05:31AM 41.4981 151.9315 61° Northeast  Level FlightAware Approximate
05:32AM 41.5681 152.1023 61° Northeast  Level FlightAware Approximate
05:33AM 41.6379 152.2734 61° Northeast  Level FlightAware Approximate
05:34AM 41.7074 152.4449 61° Northeast  Level FlightAware Approximate
05:35AM 41.7766 152.6168 62° Northeast  Level FlightAware Approximate
05:36AM 41.8456 152.7891 62° Northeast  Level FlightAware Approximate
05:37AM 41.9143 152.9617 62° Northeast  Level FlightAware Approximate
05:38AM 41.9827 153.1347 62° Northeast  Level FlightAware Approximate
05:39AM 42.0509 153.3080 62° Northeast  Level FlightAware Approximate
05:40AM 42.1189 153.4818 62° Northeast  Level FlightAware Approximate
05:41AM 42.1866 153.6559 62° Northeast  Level FlightAware Approximate
05:42AM 42.2540 153.8304 62° Northeast  Level FlightAware Approximate
05:43AM 42.3211 154.0052 63° Northeast  Level FlightAware Approximate
05:44AM 42.3880 154.1804 63° Northeast  Level FlightAware Approximate
05:45AM 42.4546 154.3560 63° Northeast  Level FlightAware Approximate
05:46AM 42.5210 154.5320 63° Northeast  Level FlightAware Approximate
05:47AM 42.5871 154.7084 63° Northeast  Level FlightAware Approximate
05:48AM 42.6529 154.8851 63° Northeast  Level FlightAware Approximate
05:49AM 42.7184 155.0622 63° Northeast  Level FlightAware Approximate
05:50AM 42.7837 155.2396 63° Northeast  Level FlightAware Approximate
05:51AM 42.8487 155.4175 63° Northeast  Level FlightAware Approximate
05:52AM 42.9134 155.5957 64° Northeast  Level FlightAware Approximate
05:53AM 42.9778 155.7743 64° Northeast  Level FlightAware Approximate
05:54AM 43.0420 155.9532 64° Northeast  Level FlightAware Approximate
05:55AM 43.1059 156.1326 64° Northeast  Level FlightAware Approximate
05:56AM 43.1694 156.3123 64° Northeast  Level FlightAware Approximate
05:57AM 43.2328 156.4924 64° Northeast  Level FlightAware Approximate
05:58AM 43.2958 156.6728 64° Northeast  Level FlightAware Approximate
05:59AM 43.3585 156.8537 64° Northeast  Level FlightAware Approximate
06:00AM 43.4210 157.0349 65° Northeast  Level FlightAware Approximate
06:01AM 43.4832 157.2164 65° Northeast  Level FlightAware Approximate
06:02AM 43.5451 157.3984 65° Northeast  Level FlightAware Approximate
06:03AM 43.6067 157.5807 65° Northeast  Level FlightAware Approximate
06:04AM 43.6680 157.7634 65° Northeast  Level FlightAware Approximate
06:05AM 43.7290 157.9465 65° Northeast  Level FlightAware Approximate
06:06AM 43.7897 158.1299 65° Northeast  Level FlightAware Approximate
06:07AM 43.8501 158.3137 65° Northeast  Level FlightAware Approximate
06:08AM 43.9103 158.4979 66° East  Level FlightAware Approximate
06:09AM 43.9701 158.6825 66° East  Level FlightAware Approximate
06:10AM 44.0297 158.8674 66° East  Level FlightAware Approximate
06:11AM 44.0889 159.0527 66° East  Level FlightAware Approximate
06:12AM 44.1478 159.2384 66° East  Level FlightAware Approximate
06:13AM 44.2065 159.4244 66° East  Level FlightAware Approximate
06:14AM 44.2648 159.6108 66° East  Level FlightAware Approximate
06:15AM 44.3228 159.7976 66° East  Level FlightAware Approximate
06:16AM 44.3806 159.9848 67° East  Level FlightAware Approximate
06:17AM 44.4380 160.1723 67° East  Level FlightAware Approximate
06:18AM 44.4951 160.3602 67° East  Level FlightAware Approximate
06:19AM 44.5519 160.5484 67° East  Level FlightAware Approximate
06:20AM 44.6084 160.7370 67° East  Level FlightAware Approximate
06:21AM 44.6646 160.9260 67° East  Level FlightAware Approximate
06:22AM 44.7205 161.1154 67° East  Level FlightAware Approximate
06:23AM 44.7760 161.3051 68° East  Level FlightAware Approximate
06:24AM 44.8313 161.4952 68° East  Level FlightAware Approximate
06:25AM 44.8862 161.6856 68° East  Level FlightAware Approximate
06:26AM 44.9408 161.8764 68° East  Level FlightAware Approximate
06:27AM 44.9951 162.0676 68° East  Level FlightAware Approximate
06:28AM 45.0491 162.2592 68° East  Level FlightAware Approximate
06:29AM 45.1027 162.4510 68° East  Level FlightAware Approximate
06:30AM 45.1560 162.6433 68° East  Level FlightAware Approximate
06:31AM 45.2090 162.8359 69° East  Level FlightAware Approximate
06:32AM 45.2617 163.0289 69° East  Level FlightAware Approximate
06:33AM 45.3141 163.2222 69° East  Level FlightAware Approximate
06:34AM 45.3661 163.4159 69° East  Level FlightAware Approximate
06:35AM 45.4178 163.6099 69° East  Level FlightAware Approximate
06:36AM 45.4692 163.8043 69° East  Level FlightAware Approximate
06:37AM 45.5202 163.9991 69° East  Level FlightAware Approximate
06:38AM 45.5709 164.1942 70° East  Level FlightAware Approximate
06:39AM 45.6213 164.3896 70° East  Level FlightAware Approximate
06:40AM 45.6714 164.5854 70° East  Level FlightAware Approximate
06:40AM 40.6167 167.6167 77° East 561 646 38,000  Level Oakland Oceanic (ODAPS)
06:41AM 45.7211 164.7816 70° East  Level FlightAware Approximate
06:42AM 45.7705 164.9781 70° East  Level FlightAware Approximate
06:43AM 45.8195 165.1749 70° East  Level FlightAware Approximate
06:44AM 45.8682 165.3721 70° East  Level FlightAware Approximate
06:45AM 45.9165 165.5696 71° East  Level FlightAware Approximate
06:46AM 40.8145 168.8049 78° East 561 646 38,000  Level FlightAware Transoceanic
06:47AM 40.8462 169.0036 78° East 561 646 38,000  Level FlightAware Transoceanic
06:48AM 40.8777 169.2025 78° East 561 646 38,000  Level FlightAware Transoceanic
06:49AM 40.9088 169.4016 78° East 561 646 38,000  Level FlightAware Transoceanic
06:50AM 40.9395 169.6009 79° East 561 646 38,000  Level FlightAware Transoceanic
06:51AM 40.9699 169.8004 79° East 561 646 38,000  Level FlightAware Transoceanic
06:52AM 41.0000 170.0000 72° East 561 646 38,000  Level FlightAware Transoceanic
06:52AM 41.0000 170.0000 72° East 551 634 38,000  Level Oakland Oceanic (ODAPS)
06:53AM 41.0465 170.1861 72° East 561 646 38,000  Level FlightAware Transoceanic
06:54AM 41.0927 170.3725 72° East 561 646 38,000  Level FlightAware Transoceanic
06:54AM 41.1000 170.3667 72° East 547 629 38,000  Level Oakland Oceanic (ODAPS)
06:55AM 41.1385 170.5591 72° East 561 646 38,000  Level FlightAware Transoceanic
06:56AM 41.1841 170.7460 72° East 561 646 38,000  Level FlightAware Transoceanic
06:57AM 41.2294 170.9331 72° East 561 646 38,000  Level FlightAware Transoceanic
06:58AM 41.2851 171.1655 72° East 551 634 38,000  Level FlightAware Transoceanic
06:59AM 41.3315 171.3608 73° East 551 634 38,000  Level FlightAware Transoceanic
07:00AM 41.3753 171.5141 73° East 547 629 38,000  Level FlightAware Transoceanic
07:01AM 41.4200 171.7063 73° East 547 629 38,000  Level FlightAware Transoceanic
07:02AM 41.4645 171.8987 73° East 547 629 38,000  Level FlightAware Transoceanic
07:03AM 41.5086 172.0915 73° East 547 629 38,000  Level FlightAware Transoceanic
07:04AM 41.5524 172.2844 73° East 547 629 38,000  Level FlightAware Transoceanic
07:05AM 41.5959 172.4776 73° East 547 629 38,000  Level FlightAware Transoceanic
07:06AM 41.6391 172.6711 73° East 547 629 38,000  Level FlightAware Transoceanic
07:07AM 41.6819 172.8649 74° East 547 629 38,000  Level FlightAware Transoceanic
07:08AM 41.7244 173.0589 74° East 547 629 38,000 840 Level FlightAware Transoceanic
07:08AM 41.7167 173.0500 74° East 540 621 39,000  Climbing Oakland Oceanic (ODAPS)
07:09AM 41.7666 173.2531 74° East 547 629 38,000 -540 Descending FlightAware Transoceanic
07:10AM 41.8084 173.4477 74° East 547 629 38,000  Level FlightAware Transoceanic
07:11AM 41.8499 173.6424 74° East 547 629 38,000  Level FlightAware Transoceanic
07:12AM 41.8911 173.8374 74° East 547 629 38,000  Level FlightAware Transoceanic
07:13AM 41.9320 174.0327 74° East 547 629 38,000 480 Level FlightAware Transoceanic
07:14AM 41.9662 174.2207 74° East 540 621 39,000 480 Climbing FlightAware Transoceanic
07:15AM 42.0066 174.4167 75° East 540 621 39,000  Level FlightAware Transoceanic
07:16AM 42.0467 174.6130 75° East 540 621 39,000  Level FlightAware Transoceanic
07:17AM 42.0865 174.8095 75° East 540 621 39,000  Level FlightAware Transoceanic
07:18AM 42.1259 175.0062 75° East 540 621 39,000  Level FlightAware Transoceanic
07:19AM 42.1650 175.2032 75° East 540 621 39,000  Level FlightAware Transoceanic
07:20AM 42.2038 175.4004 75° East 540 621 39,000  Level FlightAware Transoceanic
07:21AM 42.2422 175.5979 75° East 540 621 39,000  Level FlightAware Transoceanic
07:22AM 42.2803 175.7956 75° East 540 621 39,000  Level FlightAware Transoceanic
07:22AM 42.2667 175.7000 75° East 534 615 39,000  Level Oakland Oceanic (ODAPS)
07:23AM 42.3180 175.9936 76° East 540 621 39,000  Level FlightAware Transoceanic
07:24AM 42.3554 176.1918 76° East 540 621 39,000  Level FlightAware Transoceanic
07:25AM 42.3924 176.3902 76° East 540 621 39,000  Level FlightAware Transoceanic
07:26AM 42.4291 176.5888 76° East 540 621 39,000  Level FlightAware Transoceanic
07:27AM 42.4655 176.7877 76° East 540 621 39,000  Level FlightAware Transoceanic
07:28AM 42.4826 176.8625 76° East 534 615 39,000  Level FlightAware Transoceanic
07:29AM 42.5174 177.0571 76° East 534 615 39,000  Level FlightAware Transoceanic
07:30AM 42.5519 177.2518 77° East 534 615 39,000  Level FlightAware Transoceanic
07:31AM 42.5861 177.4468 77° East 534 615 39,000  Level FlightAware Transoceanic
07:32AM 42.6199 177.6419 77° East 534 615 39,000  Level FlightAware Transoceanic
07:33AM 42.6534 177.8373 77° East 534 615 39,000  Level FlightAware Transoceanic
07:34AM 42.6866 178.0329 77° East 534 615 39,000  Level FlightAware Transoceanic
07:35AM 42.7195 178.2287 77° East 534 615 39,000  Level FlightAware Transoceanic
07:35AM 42.7500 178.4000 77° East 530 610 39,000  Level Oakland Oceanic (ODAPS)
07:36AM 42.7520 178.4247 77° East 534 615 39,000  Level FlightAware Transoceanic
07:37AM 42.7842 178.6209 77° East 534 615 39,000  Level FlightAware Transoceanic
07:38AM 42.8160 178.8174 78° East 534 615 39,000  Level FlightAware Transoceanic
07:39AM 42.8475 179.0140 78° East 534 615 39,000  Level FlightAware Transoceanic
07:40AM 42.8787 179.2108 78° East 534 615 39,000  Level FlightAware Transoceanic
07:41AM 42.9095 179.4078 78° East 534 615 39,000  Level FlightAware Transoceanic
07:42AM 42.9396 179.5988 78° East 530 610 39,000  Level FlightAware Transoceanic
07:43AM 42.9700 179.7993 78° East 530 610 39,000  Level FlightAware Transoceanic
07:44AM 43.0000 -180.0000 71° East 530 610 39,000  Level FlightAware Transoceanic
07:44AM 43.0000 180.0000 71° East 532 612 39,000  Level Oakland Oceanic (ODAPS)
07:45AM 43.0465 -179.8143 71° East 530 610 39,000  Level FlightAware Transoceanic
07:46AM 43.0927 -179.6284 71° East 530 610 39,000  Level FlightAware Transoceanic
07:47AM 43.1386 -179.4422 71° East 530 610 39,000  Level FlightAware Transoceanic
07:48AM 43.1842 -179.2557 72° East 530 610 39,000  Level FlightAware Transoceanic
07:49AM 43.2295 -179.0689 72° East 530 610 39,000  Level FlightAware Transoceanic
07:49AM 43.2667 -178.9000 72° East 535 616 39,000  Level Oakland Oceanic (ODAPS)
07:50AM 43.2853 -178.8369 72° East 532 612 39,000  Level FlightAware Transoceanic
07:51AM 43.3317 -178.6421 72° East 532 612 39,000  Level FlightAware Transoceanic
07:52AM 43.3777 -178.4469 72° East 532 612 39,000  Level FlightAware Transoceanic
07:53AM 43.4235 -178.2514 72° East 532 612 39,000  Level FlightAware Transoceanic
07:54AM 43.4689 -178.0556 72° East 532 612 39,000  Level FlightAware Transoceanic
07:55AM 43.4979 -177.9159 72° East 535 616 39,000  Level FlightAware Transoceanic
07:56AM 43.5432 -177.7182 73° East 535 616 39,000  Level FlightAware Transoceanic
07:57AM 43.5880 -177.5202 73° East 535 616 39,000  Level FlightAware Transoceanic
07:58AM 43.6326 -177.3219 73° East 535 616 39,000  Level FlightAware Transoceanic
07:59AM 43.6768 -177.1233 73° East 535 616 39,000  Level FlightAware Transoceanic
08:00AM 43.7207 -176.9244 73° East 535 616 39,000  Level FlightAware Transoceanic
08:01AM 43.7642 -176.7252 73° East 535 616 39,000  Level FlightAware Transoceanic
08:02AM 43.8073 -176.5257 73° East 535 616 39,000  Level FlightAware Transoceanic
08:03AM 43.8502 -176.3259 74° East 535 616 39,000  Level FlightAware Transoceanic
08:03AM 43.8833 -176.1667 74° East 533 613 39,000  Level Oakland Oceanic (ODAPS)
08:04AM 43.8926 -176.1259 74° East 535 616 39,000  Level FlightAware Transoceanic
08:05AM 43.9348 -175.9256 74° East 535 616 39,000  Level FlightAware Transoceanic
08:06AM 43.9765 -175.7250 74° East 535 616 39,000  Level FlightAware Transoceanic
08:07AM 44.0180 -175.5241 74° East 535 616 39,000  Level FlightAware Transoceanic
08:08AM 44.0590 -175.3229 74° East 535 616 39,000  Level FlightAware Transoceanic
08:09AM 44.1252 -174.9919 74° East 533 613 39,000  Level FlightAware Transoceanic
08:10AM 44.1643 -174.7952 75° East 533 613 39,000  Level FlightAware Transoceanic
08:11AM 44.2031 -174.5983 75° East 533 613 39,000  Level FlightAware Transoceanic
08:12AM 44.2415 -174.4010 75° East 533 613 39,000  Level FlightAware Transoceanic
08:13AM 44.2797 -174.2035 75° East 533 613 39,000  Level FlightAware Transoceanic
08:14AM 44.3174 -174.0058 75° East 533 613 39,000  Level FlightAware Transoceanic
08:15AM 44.3549 -173.8078 75° East 533 613 39,000  Level FlightAware Transoceanic
08:16AM 44.3919 -173.6095 75° East 533 613 39,000  Level FlightAware Transoceanic
08:17AM 44.4287 -173.4110 76° East 533 613 39,000  Level FlightAware Transoceanic
08:17AM 44.4167 -173.4500 75° East 514 592 39,000  Level Oakland Oceanic (ODAPS)
08:18AM 44.4651 -173.2123 76° East 533 613 39,000  Level FlightAware Transoceanic
08:19AM 44.5011 -173.0133 76° East 533 613 39,000  Level FlightAware Transoceanic
08:20AM 44.5368 -172.8141 76° East 533 613 39,000  Level FlightAware Transoceanic
08:21AM 44.5722 -172.6146 76° East 533 613 39,000  Level FlightAware Transoceanic
08:22AM 44.6072 -172.4149 76° East 533 613 39,000  Level FlightAware Transoceanic
08:23AM 44.6226 -172.3078 76° East 514 592 39,000  Level FlightAware Transoceanic
08:24AM 44.6558 -172.1166 76° East 514 592 39,000  Level FlightAware Transoceanic
08:25AM 44.6887 -171.9253 76° East 514 592 39,000  Level FlightAware Transoceanic
08:26AM 44.7213 -171.7337 77° East 514 592 39,000  Level FlightAware Transoceanic
08:27AM 44.7536 -171.5419 77° East 514 592 39,000  Level FlightAware Transoceanic
08:28AM 44.7855 -171.3499 77° East 514 592 39,000  Level FlightAware Transoceanic
08:29AM 44.8171 -171.1577 77° East 514 592 39,000  Level FlightAware Transoceanic
08:30AM 44.8484 -170.9652 77° East 514 592 39,000  Level FlightAware Transoceanic
08:31AM 44.8794 -170.7726 77° East 514 592 39,000  Level FlightAware Transoceanic
08:31AM 44.8833 -170.7500 77° East 523 602 39,000  Level Oakland Oceanic (ODAPS)
08:32AM 44.9100 -170.5798 77° East 514 592 39,000  Level FlightAware Transoceanic
08:33AM 44.9403 -170.3867 78° East 514 592 39,000  Level FlightAware Transoceanic
08:34AM 44.9703 -170.1935 78° East 514 592 39,000  Level FlightAware Transoceanic
08:35AM 45.0000 -170.0000 78° East 514 592 39,000  Level FlightAware Transoceanic
08:35AM 45.0000 -170.0000 78° East 522 601 39,000  Level Oakland Oceanic (ODAPS)
08:36AM 45.0290 -169.7999 78° East 514 592 39,000  Level FlightAware Transoceanic
08:37AM 45.0577 -169.5996 79° East 523 602 39,000  Level FlightAware Transoceanic
08:38AM 45.0860 -169.3992 79° East 523 602 39,000  Level FlightAware Transoceanic
08:39AM 45.1140 -169.1985 79° East 523 602 39,000  Level FlightAware Transoceanic
08:40AM 45.1417 -168.9976 79° East 523 602 39,000  Level FlightAware Transoceanic
08:41AM 45.1689 -168.7965 79° East 522 601 39,000  Level FlightAware Transoceanic
08:42AM 45.1959 -168.5953 79° East 522 601 39,000  Level FlightAware Transoceanic
08:43AM 45.2224 -168.3938 79° East 522 601 39,000  Level FlightAware Transoceanic
08:44AM 45.2486 -168.1922 80° East 522 601 39,000  Level FlightAware Transoceanic
08:45AM 45.2745 -167.9904 80° East 522 601 39,000  Level FlightAware Transoceanic
08:45AM 45.2833 -167.9333 80° East 528 608 39,000  Level Oakland Oceanic (ODAPS)
08:46AM 45.3000 -167.7883 80° East 522 601 39,000  Level FlightAware Transoceanic
08:47AM 45.3252 -167.5862 80° East 522 601 39,000  Level FlightAware Transoceanic
08:48AM 45.3499 -167.3838 80° East 522 601 39,000  Level FlightAware Transoceanic
08:49AM 45.3744 -167.1812 80° East 522 601 39,000  Level FlightAware Transoceanic
08:50AM 45.3985 -166.9785 80° East 522 601 39,000  Level FlightAware Transoceanic
08:51AM 45.4328 -166.6953 81° East 528 608 39,000  Level FlightAware Transoceanic
08:52AM 45.4564 -166.4883 81° East 528 608 39,000  Level FlightAware Transoceanic
08:53AM 45.4796 -166.2812 81° East 528 608 39,000  Level FlightAware Transoceanic
08:54AM 45.5025 -166.0739 81° East 528 608 39,000  Level FlightAware Transoceanic
08:55AM 45.5250 -165.8664 81° East 528 608 39,000  Level FlightAware Transoceanic
08:56AM 45.5471 -165.6588 81° East 528 608 39,000  Level FlightAware Transoceanic
08:57AM 45.5688 -165.4510 82° East 528 608 39,000  Level FlightAware Transoceanic
08:58AM 45.5902 -165.2430 82° East 528 608 39,000  Level FlightAware Transoceanic
08:59AM 45.6111 -165.0349 82° East 528 608 39,000  Level FlightAware Transoceanic
08:59AM 45.6000 -165.1333 82° East 522 601 39,000  Level Oakland Oceanic (ODAPS)
09:00AM 45.6317 -164.8266 82° East 528 608 39,000  Level FlightAware Transoceanic
09:01AM 45.6520 -164.6182 82° East 528 608 39,000  Level FlightAware Transoceanic
09:02AM 45.6718 -164.4097 82° East 528 608 39,000  Level FlightAware Transoceanic
09:03AM 45.6913 -164.2009 82° East 528 608 39,000  Level FlightAware Transoceanic
09:04AM 45.7104 -163.9921 83° East 528 608 39,000  Level FlightAware Transoceanic
09:05AM 45.7169 -163.9084 83° East 522 601 39,000  Level FlightAware Transoceanic
09:06AM 45.7351 -163.7037 83° East 522 601 39,000  Level FlightAware Transoceanic
09:07AM 45.7530 -163.4989 83° East 522 601 39,000  Level FlightAware Transoceanic
09:08AM 45.7705 -163.2941 83° East 522 601 39,000  Level FlightAware Transoceanic
09:09AM 45.7876 -163.0890 83° East 522 601 39,000  Level FlightAware Transoceanic
09:10AM 45.8043 -162.8839 83° East 522 601 39,000  Level FlightAware Transoceanic
09:11AM 45.8207 -162.6786 84° East 522 601 39,000  Level FlightAware Transoceanic
09:12AM 45.8367 -162.4732 84° East 522 601 39,000  Level FlightAware Transoceanic
09:12AM 45.8500 -162.2833 84° East 525 604 39,000  Level Oakland Oceanic (ODAPS)
09:13AM 45.8523 -162.2677 84° East 522 601 39,000  Level FlightAware Transoceanic
09:14AM 45.8676 -162.0620 84° East 522 601 39,000  Level FlightAware Transoceanic
09:15AM 45.8825 -161.8563 84° East 522 601 39,000  Level FlightAware Transoceanic
09:16AM 45.8971 -161.6504 84° East 522 601 39,000  Level FlightAware Transoceanic
09:17AM 45.9112 -161.4445 84° East 522 601 39,000  Level FlightAware Transoceanic
09:18AM 45.9250 -161.2384 85° East 522 601 39,000  Level FlightAware Transoceanic
09:19AM 45.9375 -161.0394 85° East 525 604 39,000  Level FlightAware Transoceanic
09:20AM 45.9507 -160.8317 85° East 525 604 39,000  Level FlightAware Transoceanic
09:21AM 45.9636 -160.6239 85° East 525 604 39,000  Level FlightAware Transoceanic
09:22AM 45.9761 -160.4160 85° East 525 604 39,000  Level FlightAware Transoceanic
09:23AM 45.9883 -160.2081 85° East 525 604 39,000  Level FlightAware Transoceanic
09:24AM 46.0000 -160.0000 78° East 525 604 39,000  Level FlightAware Transoceanic
09:24AM 46.0000 -160.0000 78° East 542 624 39,000  Level Oakland Oceanic (ODAPS)
09:25AM 46.0316 -159.7823 78° East 525 604 39,000  Level FlightAware Transoceanic
09:26AM 46.0628 -159.5643 78° East 525 604 39,000  Level FlightAware Transoceanic
09:26AM 46.0833 -159.4500 79° East 544 626 39,000  Level Oakland Oceanic (ODAPS)
09:27AM 46.0935 -159.3461 79° East 525 604 39,000  Level FlightAware Transoceanic
09:28AM 46.1238 -159.1276 79° East 525 604 39,000  Level FlightAware Transoceanic
09:29AM 46.1538 -158.9089 79° East 525 604 39,000  Level FlightAware Transoceanic
09:30AM 46.1794 -158.7186 79° East 542 624 39,000  Level FlightAware Transoceanic
09:31AM 46.2080 -158.5042 79° East 542 624 39,000  Level FlightAware Transoceanic
09:32AM 46.2361 -158.2896 79° East 542 624 39,000  Level FlightAware Transoceanic
09:33AM 46.2576 -158.1524 79° East 544 626 39,000  Level FlightAware Transoceanic
09:34AM 46.2852 -157.9353 80° East 544 626 39,000  Level FlightAware Transoceanic
09:35AM 46.3124 -157.7180 80° East 544 626 39,000  Level FlightAware Transoceanic
09:36AM 46.3392 -157.5005 80° East 544 626 39,000  Level FlightAware Transoceanic
09:37AM 46.3656 -157.2828 80° East 544 626 39,000  Level FlightAware Transoceanic
09:38AM 46.3916 -157.0649 80° East 544 626 39,000  Level FlightAware Transoceanic
09:39AM 46.4171 -156.8468 80° East 544 626 39,000  Level FlightAware Transoceanic
09:40AM 46.4422 -156.6285 81° East 544 626 39,000 600 Level FlightAware Transoceanic
09:40AM 46.4500 -156.5167 81° East 547 629 40,000  Climbing Oakland Oceanic (ODAPS)
09:41AM 46.4670 -156.4099 81° East 544 626 39,000 -780 Descending FlightAware Transoceanic
09:42AM 46.4913 -156.1912 81° East 544 626 39,000  Level FlightAware Transoceanic
09:43AM 46.5151 -155.9723 81° East 544 626 39,000  Level FlightAware Transoceanic
09:44AM 46.5386 -155.7532 81° East 544 626 39,000  Level FlightAware Transoceanic
09:45AM 46.5617 -155.5339 81° East 544 626 39,000 480 Level FlightAware Transoceanic
09:46AM 46.5895 -155.2246 82° East 547 629 40,000 480 Climbing FlightAware Transoceanic
09:47AM 46.6113 -155.0087 82° East 547 629 40,000  Level FlightAware Transoceanic
09:48AM 46.6327 -154.7925 82° East 547 629 40,000  Level FlightAware Transoceanic
09:49AM 46.6538 -154.5762 82° East 547 629 40,000  Level FlightAware Transoceanic
09:50AM 46.6744 -154.3597 82° East 547 629 40,000  Level FlightAware Transoceanic
09:51AM 46.6946 -154.1431 82° East 547 629 40,000  Level FlightAware Transoceanic
09:52AM 46.7144 -153.9263 82° East 547 629 40,000  Level FlightAware Transoceanic
09:53AM 46.7337 -153.7093 83° East 547 629 40,000  Level FlightAware Transoceanic
09:54AM 46.7527 -153.4922 83° East 547 629 40,000  Level FlightAware Transoceanic
09:54AM 46.7500 -153.5167 83° East 559 643 40,000  Level Oakland Oceanic (ODAPS)
09:55AM 46.7713 -153.2750 83° East 547 629 40,000  Level FlightAware Transoceanic
09:56AM 46.7894 -153.0576 83° East 547 629 40,000  Level FlightAware Transoceanic
09:57AM 46.8072 -152.8400 83° East 547 629 40,000  Level FlightAware Transoceanic
09:58AM 46.8245 -152.6223 83° East 547 629 40,000  Level FlightAware Transoceanic
09:59AM 46.8414 -152.4044 84° East 547 629 40,000  Level FlightAware Transoceanic
10:00AM 46.8564 -152.2018 84° East 559 643 40,000  Level FlightAware Transoceanic
10:01AM 46.8726 -151.9822 84° East 559 643 40,000  Level FlightAware Transoceanic
10:02AM 46.8885 -151.7624 84° East 559 643 40,000  Level FlightAware Transoceanic
10:03AM 46.9039 -151.5425 84° East 559 643 40,000  Level FlightAware Transoceanic
10:04AM 46.9189 -151.3225 84° East 559 643 40,000  Level FlightAware Transoceanic
10:05AM 46.9335 -151.1024 85° East 559 643 40,000  Level FlightAware Transoceanic
10:06AM 46.9476 -150.8821 85° East 559 643 40,000  Level FlightAware Transoceanic
10:07AM 46.9613 -150.6618 85° East 559 643 40,000  Level FlightAware Transoceanic
10:08AM 46.9747 -150.4413 85° East 559 643 40,000  Level FlightAware Transoceanic
10:08AM 46.9833 -150.3667 86° East 566 651 40,000  Level Oakland Oceanic (ODAPS)
10:09AM 46.9875 -150.2207 85° East 559 643 40,000  Level FlightAware Transoceanic
10:10AM 47.0000 -150.0000 95° East 559 643 40,000  Level FlightAware Transoceanic
10:10AM 47.0000 -150.0000 95° East 569 655 40,000  Level Oakland Oceanic (ODAPS)
10:11AM 46.9868 -149.7638 95° East 559 643 40,000  Level FlightAware Transoceanic
10:12AM 46.9730 -149.5277 95° East 559 643 40,000  Level FlightAware Transoceanic
10:13AM 46.9588 -149.2918 95° East 559 643 40,000  Level FlightAware Transoceanic
10:14AM 46.9441 -149.0560 95° East 566 651 40,000  Level FlightAware Transoceanic
10:15AM 46.9289 -148.8203 95° East 566 651 40,000  Level FlightAware Transoceanic
10:16AM 46.9154 -148.6168 96° East 569 655 40,000  Level FlightAware Transoceanic
10:17AM 46.8997 -148.3867 96° East 569 655 40,000  Level FlightAware Transoceanic
10:18AM 46.8835 -148.1568 96° East 569 655 40,000  Level FlightAware Transoceanic
10:19AM 46.8669 -147.9270 96° East 569 655 40,000  Level FlightAware Transoceanic
10:20AM 46.8498 -147.6973 96° East 569 655 40,000  Level FlightAware Transoceanic
10:21AM 46.8322 -147.4678 96° East 569 655 40,000  Level FlightAware Transoceanic
10:22AM 46.8142 -147.2384 97° East 569 655 40,000  Level FlightAware Transoceanic
10:22AM 46.8167 -147.1833 97° East 577 664 40,000  Level Oakland Oceanic (ODAPS)
10:23AM 46.7958 -147.0092 97° East 569 655 40,000  Level FlightAware Transoceanic
10:24AM 46.7769 -146.7802 97° East 569 655 40,000  Level FlightAware Transoceanic
10:25AM 46.7575 -146.5513 97° East 569 655 40,000  Level FlightAware Transoceanic
10:26AM 46.7376 -146.3225 97° East 569 655 40,000  Level FlightAware Transoceanic
10:27AM 46.7173 -146.0940 97° East 569 655 40,000  Level FlightAware Transoceanic
10:28AM 46.6939 -145.7771 98° East 577 664 40,000  Level FlightAware Transoceanic
10:29AM 46.6718 -145.5433 98° East 577 664 40,000  Level FlightAware Transoceanic
10:30AM 46.6492 -145.3098 98° East 577 664 40,000  Level FlightAware Transoceanic
10:31AM 46.6261 -145.0764 98° East 577 664 40,000  Level FlightAware Transoceanic
10:32AM 46.6026 -144.8433 98° East 577 664 40,000  Level FlightAware Transoceanic
10:33AM 46.5785 -144.6104 99° East 577 664 40,000  Level FlightAware Transoceanic
10:34AM 46.5540 -144.3776 99° East 577 664 40,000  Level FlightAware Transoceanic
10:35AM 46.5291 -144.1451 99° East 577 664 40,000  Level FlightAware Transoceanic
10:36AM 46.5036 -143.9128 99° East 577 664 40,000  Level FlightAware Transoceanic
10:36AM 46.5167 -144.0167 99° East 577 664 40,000  Level Oakland Oceanic (ODAPS)
10:37AM 46.4777 -143.6807 99° East 577 664 40,000  Level FlightAware Transoceanic
10:38AM 46.4513 -143.4488 99° East 577 664 40,000  Level FlightAware Transoceanic
10:39AM 46.4245 -143.2172 100° East 577 664 40,000  Level FlightAware Transoceanic
10:40AM 46.3972 -142.9858 100° East 577 664 40,000  Level FlightAware Transoceanic
10:41AM 46.3694 -142.7546 100° East 577 664 40,000  Level FlightAware Transoceanic
10:42AM 46.3601 -142.6695 100° East 577 664 40,000  Level FlightAware Transoceanic
10:43AM 46.3325 -142.4457 100° East 577 664 40,000  Level FlightAware Transoceanic
10:44AM 46.3044 -142.2222 100° East 577 664 40,000  Level FlightAware Transoceanic
10:45AM 46.2759 -141.9989 101° East 577 664 40,000  Level FlightAware Transoceanic
10:46AM 46.2470 -141.7758 101° East 577 664 40,000  Level FlightAware Transoceanic
10:47AM 46.2176 -141.5530 101° East 577 664 40,000  Level FlightAware Transoceanic
10:48AM 46.1878 -141.3304 101° East 577 664 40,000  Level FlightAware Transoceanic
10:49AM 46.1576 -141.1080 101° East 577 664 40,000  Level FlightAware Transoceanic
10:49AM 46.1167 -140.8500 101° East 580 667 40,000  Level Oakland Oceanic (ODAPS)
10:50AM 46.1269 -140.8859 101° East 577 664 40,000  Level FlightAware Transoceanic
10:51AM 46.0958 -140.6640 102° East 577 664 40,000  Level FlightAware Transoceanic
10:52AM 46.0643 -140.4424 102° East 577 664 40,000  Level FlightAware Transoceanic
10:53AM 46.0324 -140.2211 102° East 577 664 40,000  Level FlightAware Transoceanic
10:53AM 46.0000 -140.0000 116° Southeast 569 655 40,000  Level Oakland Oceanic (ODAPS)
10:54AM 46.0000 -140.0000 116° Southeast 577 664 40,000  Level FlightAware Transoceanic
10:55AM 45.9303 -139.7908 116° Southeast 577 664 40,000  Level FlightAware Transoceanic
10:56AM 45.8603 -139.5822 116° Southeast 580 667 40,000  Level FlightAware Transoceanic
10:57AM 45.7898 -139.3741 116° Southeast 580 667 40,000  Level FlightAware Transoceanic
10:58AM 45.7190 -139.1665 116° Southeast 580 667 40,000  Level FlightAware Transoceanic
10:59AM 45.6547 -138.9794 116° Southeast 569 655 40,000  Level FlightAware Transoceanic
11:00AM 45.5846 -138.7768 116° Southeast 569 655 40,000  Level FlightAware Transoceanic
11:01AM 45.5141 -138.5747 117° Southeast 569 655 40,000  Level FlightAware Transoceanic
11:02AM 45.4432 -138.3731 117° Southeast 569 655 40,000  Level FlightAware Transoceanic
11:03AM 45.3720 -138.1720 117° Southeast 569 655 40,000  Level FlightAware Transoceanic
11:03AM 45.2833 -137.9000 117° Southeast 567 652 40,000  Level Oakland Oceanic (ODAPS)
11:04AM 45.3004 -137.9714 117° Southeast 569 655 40,000  Level FlightAware Transoceanic
11:05AM 45.2285 -137.7713 117° Southeast 569 655 40,000  Level FlightAware Transoceanic
11:06AM 45.1563 -137.5718 117° Southeast 569 655 40,000  Level FlightAware Transoceanic
11:07AM 45.0837 -137.3727 117° Southeast 569 655 40,000  Level FlightAware Transoceanic
11:08AM 45.0107 -137.1742 118° Southeast 569 655 40,000  Level FlightAware Transoceanic
11:09AM 44.9374 -136.9761 118° Southeast 569 655 40,000  Level FlightAware Transoceanic
11:10AM 44.8485 -136.7182 118° Southeast 567 652 40,000  Level FlightAware Transoceanic
11:11AM 44.7748 -136.5229 118° Southeast 567 652 40,000  Level FlightAware Transoceanic
11:12AM 44.7009 -136.3282 118° Southeast 567 652 40,000  Level FlightAware Transoceanic
11:13AM 44.6265 -136.1340 118° Southeast 567 652 40,000  Level FlightAware Transoceanic
11:14AM 44.5519 -135.9402 118° Southeast 567 652 40,000  Level FlightAware Transoceanic
11:15AM 44.4769 -135.7470 119° Southeast 567 652 40,000  Level FlightAware Transoceanic
11:16AM 44.4016 -135.5542 119° Southeast 567 652 40,000  Level FlightAware Transoceanic
11:17AM 44.3260 -135.3620 119° Southeast 567 652 40,000  Level FlightAware Transoceanic
11:17AM 44.2500 -135.1667 119° Southeast 568 654 40,000  Level Oakland Oceanic (ODAPS)
11:18AM 44.2501 -135.1703 119° Southeast 567 652 40,000  Level FlightAware Transoceanic
11:19AM 44.1738 -134.9790 119° Southeast 567 652 40,000  Level FlightAware Transoceanic
11:20AM 44.0973 -134.7882 119° Southeast 567 652 40,000  Level FlightAware Transoceanic
11:21AM 44.0204 -134.5980 119° Southeast 567 652 40,000  Level FlightAware Transoceanic
11:22AM 43.9432 -134.4082 120° Southeast 567 652 40,000  Level FlightAware Transoceanic
11:23AM 43.8657 -134.2189 120° Southeast 567 652 40,000  Level FlightAware Transoceanic
11:24AM 43.7704 -133.9855 120° Southeast 568 654 40,000  Level FlightAware Transoceanic
11:25AM 43.6893 -133.7905 120° Southeast 568 654 40,000  Level FlightAware Transoceanic
11:26AM 43.6078 -133.5960 120° Southeast 568 654 40,000  Level FlightAware Transoceanic
11:27AM 43.5261 -133.4021 120° Southeast 568 654 40,000  Level FlightAware Transoceanic
11:28AM 43.4440 -133.2086 120° Southeast 568 654 40,000  Level FlightAware Transoceanic
11:29AM 43.3615 -133.0157 121° Southeast 568 654 40,000  Level FlightAware Transoceanic
11:30AM 43.2788 -132.8234 121° Southeast 568 654 40,000  Level FlightAware Transoceanic
11:31AM 43.1957 -132.6315 121° Southeast 568 654 40,000  Level FlightAware Transoceanic
11:31AM 43.1500 -132.5500 121° Southeast 561 646 40,000  Level Oakland Oceanic (ODAPS)
11:32AM 43.1123 -132.4402 121° Southeast 568 654 40,000  Level FlightAware Transoceanic
11:33AM 43.0286 -132.2494 121° Southeast 568 654 40,000  Level FlightAware Transoceanic
11:34AM 42.9446 -132.0591 121° Southeast 568 654 40,000  Level FlightAware Transoceanic
11:35AM 42.8603 -131.8693 121° Southeast 568 654 40,000  Level FlightAware Transoceanic
11:36AM 42.7756 -131.6801 121° Southeast 568 654 40,000  Level FlightAware Transoceanic
11:37AM 42.6907 -131.4913 122° Southeast 568 654 40,000  Level FlightAware Transoceanic
11:38AM 42.6204 -131.3483 121° Southeast 561 646 40,000  Level FlightAware Transoceanic
11:39AM 42.5437 -131.1783 122° Southeast 561 646 40,000  Level FlightAware Transoceanic
11:40AM 42.4668 -131.0087 122° Southeast 561 646 40,000  Level FlightAware Transoceanic
11:41AM 42.3896 -130.8396 122° Southeast 561 646 40,000  Level FlightAware Transoceanic
11:42AM 42.3122 -130.6708 122° Southeast 561 646 40,000  Level FlightAware Transoceanic
11:43AM 42.2345 -130.5025 122° Southeast 561 646 40,000  Level FlightAware Transoceanic
11:44AM 42.1566 -130.3346 122° Southeast 561 646 40,000  Level FlightAware Transoceanic
11:45AM 42.0784 -130.1671 122° Southeast 561 646 40,000 660 Level FlightAware Transoceanic
11:45AM 42.0333 -130.0667 124° Southeast 530 610 41,000 1,080 Climbing Oakland Oceanic (ODAPS)
11:45AM 42.0000 -130.0000 120° Southeast 550 633 41,000 -1,860 Level Oakland Oceanic (ODAPS)
11:46AM 42.0000 -130.0000 120° Southeast 561 646 40,000 -900 Descending FlightAware Transoceanic
11:47AM 41.9218 -129.8200 120° Southeast 561 646 40,000  Level FlightAware Transoceanic
11:48AM 41.8433 -129.6405 120° Southeast 561 646 40,000  Level FlightAware Transoceanic
11:49AM 41.7645 -129.4614 121° Southeast 561 646 40,000  Level FlightAware Transoceanic
11:50AM 41.6855 -129.2828 121° Southeast 561 646 40,000 480 Level FlightAware Transoceanic
11:51AM 41.6062 -129.1046 121° Southeast 530 610 41,000 480 Climbing FlightAware Transoceanic
11:52AM 41.5266 -128.9268 121° Southeast 550 633 41,000  Level FlightAware Transoceanic
11:53AM 41.4467 -128.7495 121° Southeast 550 633 41,000  Level FlightAware Transoceanic
11:54AM 41.3666 -128.5726 121° Southeast 550 633 41,000  Level FlightAware Transoceanic
11:55AM 41.2862 -128.3961 121° Southeast 550 633 41,000  Level FlightAware Transoceanic
11:56AM 41.2055 -128.2201 121° Southeast 550 633 41,000  Level FlightAware Transoceanic
11:57AM 41.1245 -128.0445 122° Southeast 550 633 41,000  Level FlightAware Transoceanic
11:58AM 41.0433 -127.8693 122° Southeast 550 633 41,000  Level FlightAware Transoceanic
11:59AM 40.9618 -127.6946 122° Southeast 550 633 41,000  Level FlightAware Transoceanic
11:59AM 40.9500 -127.6833 121° Southeast 535 616 41,000  Level Oakland Oceanic (ODAPS)
12:00PM 40.8801 -127.5203 122° Southeast 550 633 41,000 -120 Level FlightAware Transoceanic
12:00PM 40.8289 -127.4628 118° Southeast 539 620 40,900  Descending Oakland Center
12:01PM 40.7981 -127.3464 122° Southeast 550 633 41,000  Climbing FlightAware Transoceanic
12:01PM 40.7500 -127.2969 122° Southeast 537 618 40,900  Descending Oakland Center
12:02PM 40.7159 -127.1730 122° Southeast 550 633 41,000 300 Climbing FlightAware Transoceanic
12:02PM 40.7833 -127.3333 121° Southeast 523 602 41,000 -180 Level Oakland Oceanic (ODAPS)
12:02PM 40.6642 -127.1411 121° Southeast 531 611 40,900  Descending Oakland Center
12:03PM 40.6333 -127.0000 118° Southeast 550 633 41,000 60 Climbing FlightAware Transoceanic
12:03PM 40.5669 -126.9914 130° Southeast 530 610 41,000  Level Oakland Center
12:04PM 40.5640 -126.8266 118° Southeast 550 633 41,000  Level FlightAware Transoceanic
12:04PM 40.4514 -126.8106 130° Southeast 535 616 41,000  Level Oakland Center
12:05PM 40.4944 -126.6535 118° Southeast 535 616 41,000 -120 Level FlightAware Transoceanic
12:05PM 40.3517 -126.6594 131° Southeast 542 624 40,900  Descending Oakland Center
12:06PM 40.4246 -126.4807 118° Southeast 535 616 41,000 60 Climbing FlightAware Transoceanic
12:06PM 40.2575 -126.5067 129° Southeast 542 624 41,000  Level Oakland Center
12:07PM 40.1614 -126.3556 130° Southeast 543 625 41,000 -60 Level Oakland Center
12:08PM 40.0631 -126.2036 130° Southeast 547 629 40,900  Descending Oakland Center
12:09PM 39.9664 -126.0525 130° Southeast 546 628 41,000  Climbing Oakland Center
12:10PM 39.8700 -125.9017 130° Southeast 545 627 41,000  Level Oakland Center
12:11PM 39.7719 -125.7528 131° Southeast 545 627 41,000  Level Oakland Center
12:12PM 39.6750 -125.6042 130° Southeast 543 625 41,000 -60 Level Oakland Center
12:13PM 39.5586 -125.4256 130° Southeast 543 625 40,900 -60 Descending Oakland Center
12:14PM 39.4614 -125.2800 131° Southeast 540 621 40,900  Level Oakland Center
12:15PM 39.3675 -125.1372 130° Southeast 539 620 40,900  Level Oakland Center
12:17PM 39.2694 -124.9911 131° Southeast 540 621 41,000  Climbing Oakland Center
12:18PM 39.1719 -124.8439 130° Southeast 541 623 41,000 -60 Level Oakland Center
12:19PM 39.0717 -124.6944 131° Southeast 542 624 40,900 -60 Descending Oakland Center
12:20PM 38.9756 -124.5517 131° Southeast 541 623 40,900  Level Oakland Center
12:21PM 38.8756 -124.4058 131° Southeast 538 619 41,000  Climbing Oakland Center
12:22PM 38.7783 -124.2614 131° Southeast 537 618 41,000 -60 Level Oakland Center
12:23PM 38.6622 -124.0922 131° Southeast 534 615 40,900 -60 Descending Oakland Center
12:24PM 38.5633 -123.9508 132° Southeast 534 615 40,900  Level Oakland Center
12:25PM 38.4647 -123.8106 132° Southeast 534 615 40,900  Level Oakland Center
12:26PM 38.3669 -123.6694 131° Southeast 533 613 40,900  Level Oakland Center
12:27PM 38.2703 -123.5303 131° Southeast 529 609 40,900  Level Oakland Center
12:28PM 38.1739 -123.3914 131° Southeast 526 605 41,000  Climbing Oakland Center
12:29PM 38.0764 -123.2544 132° Southeast 527 606 41,000 -60 Level Oakland Center
12:30PM 37.9819 -123.1181 131° Southeast 520 598 40,900 -420 Descending Oakland Center
12:35PM 37.4524 -122.3790 131° Southeast 516 594 38,600 -540 Descending FlightAware ADS-B
12:36PM 37.3655 -122.2600 133° Southeast 525 604 37,600 -1,080 Descending FlightAware ADS-B
12:37PM 37.2963 -122.1650 132° Southeast 513 590 36,900 -960 Descending FlightAware ADS-B
12:37PM 37.2442 -122.0930 132° Southeast 507 583 36,400 -960 Descending FlightAware ADS-B
12:38PM 37.1962 -122.0280 133° Southeast 506 582 35,900 -1,140 Descending FlightAware ADS-B
12:38PM 37.1470 -121.9610 133° Southeast 500 575 35,300 -1,080 Descending FlightAware ADS-B
12:39PM 37.0975 -121.8930 132° Southeast 500 575 34,800 -1,020 Descending FlightAware ADS-B
12:39PM 37.0451 -121.8220 133° Southeast 493 567 34,200 -1,020 Descending FlightAware ADS-B
12:40PM 36.9931 -121.7520 133° Southeast 489 563 33,700 -960 Descending FlightAware ADS-B
12:41PM 36.9257 -121.6600 132° Southeast 484 557 33,000 -600 Descending FlightAware ADS-B
12:41PM 36.8789 -121.5970 133° Southeast 481 554 33,000  Level FlightAware ADS-B
12:42PM 36.8284 -121.5300 133° Southeast 481 554 33,000  Level FlightAware ADS-B
12:42PM 36.7781 -121.4620 133° Southeast 507 583 33,000  Level FlightAware ADS-B
12:43PM 36.7249 -121.3900 133° Southeast 520 598 33,000  Level FlightAware ADS-B
12:43PM 36.6644 -121.3100 133° Southeast 521 600 33,000  Level FlightAware ADS-B
12:44PM 36.6131 -121.2486 133° Southeast 518 596 33,000  Level Oakland Center
12:45PM 36.5144 -121.1153 133° Southeast 522 601 33,000  Level Oakland Center
12:46PM 36.3961 -120.9592 133° Southeast 519 597 33,000  Level Oakland Center
12:47PM 36.2983 -120.8272 133° Southeast 519 597 33,000  Level Oakland Center
12:48PM 36.1992 -120.6981 134° Southeast 519 597 33,000 -60 Level Oakland Center
12:49PM 36.1008 -120.5683 133° Southeast 517 595 32,900  Descending Oakland Center
12:50PM 36.0014 -120.4372 133° Southeast 520 598 33,000  Climbing Oakland Center
12:51PM 35.9014 -120.3081 134° Southeast 520 598 33,000 -60 Level Oakland Center
12:52PM 35.8011 -120.1772 133° Southeast 522 601 32,900 -60 Descending Oakland Center
12:53PM 35.6997 -120.0467 134° Southeast 523 602 32,900  Level Oakland Center
12:54PM 35.5711 -119.9131 140° Southeast 498 573 33,000 -480 Climbing Los Angeles Center
12:55PM 35.4606 -119.8172 145° Southeast 487 560 31,900 -1,500 Descending Los Angeles Center
12:56PM 35.3503 -119.7217 145° Southeast 483 556 29,900 -1,860 Descending Los Angeles Center
12:58PM 35.2439 -119.6311 145° Southeast 468 539 28,100 -1,860 Descending Los Angeles Center
12:59PM 35.1400 -119.5422 145° Southeast 457 526 26,100 -2,040 Descending Los Angeles Center
01:00PM 35.0397 -119.4561 145° Southeast 447 514 24,000 -1,020 Descending Los Angeles Center
01:01PM 34.9208 -119.3553 145° Southeast 436 502 24,000 -180 Level Los Angeles Center
01:02PM 34.8222 -119.2708 145° Southeast 434 499 23,700 -1,020 Descending Los Angeles Center
01:03PM 34.7256 -119.1883 145° Southeast 428 493 21,900 -1,800 Descending Los Angeles Center
01:04PM 34.6319 -119.1108 146° Southeast 415 478 20,100 -1,800 Descending Los Angeles Center
01:05PM 34.5392 -119.0353 146° Southeast 397 457 18,300 -1,980 Descending Los Angeles Center
01:06PM 34.4503 -118.9603 145° Southeast 390 449 16,100 -2,220 Descending Los Angeles Center
01:07PM 34.3397 -118.8750 147° Southeast 391 450 13,800 -1,980 Descending Los Angeles Center
01:08PM 34.2383 -118.8386 163° South 379 436 12,100 -1,260 Descending Los Angeles Center
01:09PM 34.1392 -118.8025 163° South 371 427 11,300 -1,020 Descending Los Angeles Center
01:10PM 34.0464 -118.7503 155° Southeast 324 373 10,100 -660 Descending Los Angeles Center
01:11PM 34.0286 -118.6569 103° East 286 329 10,000 -720 Descending Los Angeles Center
01:12PM 34.0181 -118.5386 96° East 272 313 8,500 -1,260 Descending Los Angeles Center
01:13PM 34.0108 -118.4506 96° East 268 308 7,200 -1,020 Descending Los Angeles Center
01:14PM 34.0183 -118.3806 83° East 267 307 6,400 -1,020 Descending Los Angeles Center
01:15PM 34.0283 -118.2794 83° East 255 293 5,100 -960 Descending Los Angeles Center
01:16PM 34.0358 -118.2061 83° East 230 265 4,400 -840 Descending Los Angeles Center
01:17PM 33.9944 -118.1889 161° South 204 235 3,400 -960 Descending Los Angeles Center
01:18PM 33.9711 -118.2419 242° Southwest 186 214 2,500 -900 Descending Los Angeles Center
01:19PM 33.9611 -118.3142 261° West 185 213 1,600 -840 Descending Los Angeles Center
01:21PM 33.9567 -118.3683 264° West 175 201 800 -720 Descending Los Angeles Center
01:22PM 33.9511 -118.4156 262° West 158 182 200 -600 Descending Los Angeles Center